Terminal Aerodrome Forecast
Issued by NWS

Home | Current Version | Previous Version | Text Only | Print | Product List | Glossary On
Versions: 1 2 3 4 5 6 7 8 9 10 11 12 13 14 15 16 17 18 19 20 21 22 23 24 25
000
FTPA31 PHFO 162100 AAA
TAFJHM
TAF AMD
PHJH 162100Z 1621/1718 02014G20KT P6SM SCT025 SCT045
     FM170400 04007KT P6SM VCSH FEW020 SCT040
      AMD NOT SKED AFT 170400=

USA.gov is the U.S. government's official web portal to all federal, state and local government web resources and services.